Time;durP1;ratioP1;P1;durP2;ratioP2;P2;SDS_P1;SDS_P2;PMS_P1;PMS_P2;Temp;Humidity;BMP_temperature;BMP_pressure;BME280_temperature;BME280_humidity;BME280_pressure;Samples;Min_cycle;Max_cycle;Signal;HPM_P1;HPM_P2
2021/10/16 00:01:15;;;;;;;10.00;9.00;;;9.30;99.90;;;;;;4986113;28;20204;-80
2021/10/16 00:03:42;;;;;;;10.40;9.40;;;9.30;99.90;;;;;;5002283;28;20216;-80
2021/10/16 00:06:09;;;;;;;10.30;9.40;;;9.30;99.90;;;;;;5005209;28;20235;-80
2021/10/16 00:08:36;;;;;;;10.55;9.55;;;9.30;99.90;;;;;;4990242;28;20222;-80
2021/10/16 00:11:03;;;;;;;12.30;10.23;;;9.30;99.90;;;;;;4985427;28;20713;-80
2021/10/16 00:13:29;;;;;;;11.80;9.75;;;9.30;99.90;;;;;;4984955;28;20209;-81
2021/10/16 00:15:56;;;;;;;9.32;8.57;;;9.20;99.90;;;;;;4987600;28;20232;-80
2021/10/16 00:18:24;;;;;;;10.30;9.25;;;9.30;99.90;;;;;;4993127;28;20221;-79
2021/10/16 00:20:51;;;;;;;10.57;9.18;;;9.30;99.90;;;;;;4987888;28;20203;-80
2021/10/16 00:23:18;;;;;;;9.00;8.10;;;9.30;99.90;;;;;;5004750;28;20266;-80
2021/10/16 00:25:45;;;;;;;10.00;9.02;;;9.30;99.90;;;;;;5002644;28;20231;-80
2021/10/16 00:28:11;;;;;;;8.85;8.00;;;9.30;99.90;;;;;;4985626;28;20392;-80
2021/10/16 00:30:38;;;;;;;10.43;8.63;;;9.30;99.90;;;;;;5001056;28;20227;-80
2021/10/16 00:33:05;;;;;;;10.20;9.30;;;9.30;99.90;;;;;;4993929;28;20598;-78
2021/10/16 00:35:33;;;;;;;9.02;8.27;;;9.40;99.90;;;;;;4985038;28;20235;-80
2021/10/16 00:38:00;;;;;;;8.57;7.80;;;9.40;99.90;;;;;;4994241;28;20212;-80
2021/10/16 00:40:27;;;;;;;11.27;9.63;;;9.50;99.90;;;;;;4989717;28;20202;-80
2021/10/16 00:42:55;;;;;;;8.67;7.77;;;9.50;99.90;;;;;;4992144;28;20211;-80
2021/10/16 00:45:24;;;;;;;9.40;8.50;;;9.50;99.90;;;;;;5008105;28;20472;-80
2021/10/16 00:47:51;;;;;;;8.90;8.20;;;9.50;99.90;;;;;;5002008;28;20209;-80
2021/10/16 00:50:20;;;;;;;8.23;7.63;;;9.60;99.90;;;;;;4989093;28;20237;-80
2021/10/16 00:52:49;;;;;;;7.70;7.00;;;9.60;99.90;;;;;;5002817;28;20638;-80
2021/10/16 00:55:17;;;;;;;10.20;9.30;;;9.70;99.90;;;;;;5008142;28;20835;-80
2021/10/16 00:57:44;;;;;;;9.50;8.65;;;9.70;99.90;;;;;;4994849;28;20550;-80
2021/10/16 01:00:12;;;;;;;9.80;8.80;;;9.80;99.90;;;;;;4988677;28;20214;-80
2021/10/16 01:02:40;;;;;;;10.15;7.90;;;9.80;99.90;;;;;;5001139;28;20453;-80
2021/10/16 01:05:09;;;;;;;9.18;8.32;;;9.80;99.90;;;;;;4989209;28;20231;-80
2021/10/16 01:07:37;;;;;;;10.40;8.97;;;9.90;99.90;;;;;;5005435;28;20576;-80
2021/10/16 01:10:06;;;;;;;9.57;8.63;;;9.90;99.90;;;;;;5008484;28;20493;-80
2021/10/16 01:12:33;;;;;;;9.30;8.40;;;10.00;99.90;;;;;;5007330;28;20456;-80
2021/10/16 01:15:03;;;;;;;9.30;8.50;;;10.00;99.90;;;;;;5007775;28;20232;-80
2021/10/16 01:17:30;;;;;;;9.87;8.97;;;10.00;99.90;;;;;;4990979;28;20209;-81
2021/10/16 01:20:04;;;;;;;10.50;9.43;;;10.00;99.90;;;;;;4988058;28;20464;-80
2021/10/16 01:22:33;;;;;;;8.27;7.47;;;10.10;99.90;;;;;;4987856;28;20457;-80
2021/10/16 01:25:00;;;;;;;8.97;8.13;;;10.20;99.90;;;;;;5006807;28;20473;-80
2021/10/16 01:27:27;;;;;;;9.17;7.37;;;10.20;99.90;;;;;;5003137;28;20457;-80
2021/10/16 01:29:54;;;;;;;10.40;8.60;;;10.30;99.90;;;;;;4987960;28;20590;-80
2021/10/16 01:32:21;;;;;;;10.70;7.80;;;10.30;99.90;;;;;;4990419;28;20466;-80
2021/10/16 01:34:48;;;;;;;10.87;9.80;;;10.30;99.90;;;;;;5007275;28;20473;-81
2021/10/16 01:37:15;;;;;;;8.87;7.97;;;10.30;99.90;;;;;;5007288;28;20461;-80
2021/10/16 01:39:43;;;;;;;11.80;10.70;;;10.30;99.90;;;;;;5001739;28;20497;-80
2021/10/16 01:42:13;;;;;;;11.40;10.30;;;10.10;99.90;;;;;;4988004;28;20460;-80
2021/10/16 01:44:40;;;;;;;10.57;9.63;;;9.80;99.90;;;;;;4986967;28;20539;-79
2021/10/16 01:47:07;;;;;;;11.93;9.73;;;9.60;99.90;;;;;;4987153;28;20449;-80
2021/10/16 01:49:34;;;;;;;12.10;10.05;;;9.30;99.90;;;;;;5005854;28;21289;-79
2021/10/16 01:52:01;;;;;;;12.10;10.90;;;9.20;99.90;;;;;;4998285;28;20690;-80
2021/10/16 01:54:28;;;;;;;10.55;9.55;;;9.20;99.90;;;;;;4987895;28;20210;-80
2021/10/16 01:56:56;;;;;;;12.88;10.05;;;9.30;99.90;;;;;;5005959;28;20209;-80
2021/10/16 01:59:25;;;;;;;10.55;8.68;;;9.20;99.90;;;;;;5005696;28;20216;-80
2021/10/16 02:01:53;;;;;;;10.93;9.90;;;9.30;99.90;;;;;;5005882;28;20205;-80
2021/10/16 02:04:20;;;;;;;10.43;9.07;;;9.40;99.90;;;;;;4995693;28;20212;-80
2021/10/16 02:06:47;;;;;;;12.23;9.45;;;9.40;99.90;;;;;;4986600;28;20599;-80
2021/10/16 02:09:14;;;;;;;10.60;9.02;;;9.30;99.90;;;;;;4996363;28;20382;-80
2021/10/16 02:11:41;;;;;;;12.68;9.40;;;9.40;99.90;;;;;;5006503;28;20213;-80
2021/10/16 02:14:09;;;;;;;12.20;10.27;;;9.60;99.90;;;;;;5005484;28;20207;-80
2021/10/16 02:16:36;;;;;;;10.23;9.32;;;9.70;99.90;;;;;;5005489;28;20456;-80
2021/10/16 02:19:04;;;;;;;11.70;10.52;;;9.70;99.90;;;;;;4998444;28;20203;-80
2021/10/16 02:21:30;;;;;;;12.60;10.50;;;9.70;99.90;;;;;;4986528;28;20394;-80
2021/10/16 02:23:57;;;;;;;9.60;8.70;;;9.80;99.90;;;;;;4986217;28;20453;-80
2021/10/16 02:26:24;;;;;;;13.73;10.47;;;9.70;99.90;;;;;;4986332;28;20477;-80
2021/10/16 02:28:52;;;;;;;10.57;9.48;;;9.80;99.90;;;;;;4986976;28;20459;-80
2021/10/16 02:31:21;;;;;;;9.93;9.10;;;9.80;99.90;;;;;;4986578;28;20660;-80
2021/10/16 02:33:49;;;;;;;11.20;10.00;;;9.90;99.90;;;;;;5002994;28;20484;-80
2021/10/16 02:36:16;;;;;;;9.70;8.93;;;10.00;99.90;;;;;;5005233;28;20568;-80
2021/10/16 02:38:43;;;;;;;9.13;8.30;;;10.00;99.90;;;;;;4991214;28;20450;-80
2021/10/16 02:41:11;;;;;;;10.50;9.00;;;10.10;99.90;;;;;;4997590;28;20454;-80
2021/10/16 02:43:37;;;;;;;9.60;8.60;;;10.10;99.90;;;;;;4988442;28;20533;-80
2021/10/16 02:46:04;;;;;;;10.55;9.45;;;10.10;99.90;;;;;;5005170;28;20477;-79
2021/10/16 02:48:32;;;;;;;17.00;10.80;;;9.70;99.90;;;;;;4993010;28;20211;-80
2021/10/16 02:50:59;;;;;;;12.70;10.30;;;9.70;99.90;;;;;;4986652;28;20225;-79
2021/10/16 02:53:26;;;;;;;11.43;10.23;;;9.80;99.90;;;;;;4986850;28;20947;-80
2021/10/16 02:55:53;;;;;;;12.85;10.68;;;9.70;99.90;;;;;;4996726;28;20241;-80
2021/10/16 02:58:20;;;;;;;10.55;9.52;;;9.40;99.90;;;;;;5004716;28;20214;-80
2021/10/16 03:00:46;;;;;;;11.68;10.05;;;9.50;99.90;;;;;;4987194;28;20213;-80
2021/10/16 03:03:13;;;;;;;13.70;12.27;;;9.60;99.90;;;;;;4991768;28;20203;-79
2021/10/16 03:05:41;;;;;;;12.45;10.68;;;9.80;99.90;;;;;;5006082;28;20473;-80
2021/10/16 03:08:08;;;;;;;13.93;12.43;;;9.80;99.90;;;;;;5002013;28;20218;-79
2021/10/16 03:10:34;;;;;;;14.18;11.43;;;9.90;99.90;;;;;;4987110;28;20493;-80
2021/10/16 03:13:01;;;;;;;12.33;11.13;;;10.00;99.90;;;;;;4989062;28;20214;-80
2021/10/16 03:15:28;;;;;;;12.02;10.82;;;10.00;99.90;;;;;;4998197;28;20474;-80
2021/10/16 03:17:55;;;;;;;13.43;12.15;;;10.10;99.90;;;;;;4987566;28;20205;-79
2021/10/16 03:20:21;;;;;;;17.08;13.18;;;10.10;99.90;;;;;;5006803;28;20212;-80
2021/10/16 03:22:49;;;;;;;12.73;11.55;;;10.10;99.90;;;;;;5006539;28;20210;-80
2021/10/16 03:25:16;;;;;;;9.57;8.67;;;10.10;99.90;;;;;;5005997;28;20665;-80
2021/10/16 03:27:43;;;;;;;11.32;10.15;;;10.10;99.90;;;;;;4998356;28;20453;-80
2021/10/16 03:30:10;;;;;;;12.48;9.85;;;10.10;99.90;;;;;;4986512;28;20221;-80
2021/10/16 03:32:37;;;;;;;11.55;10.10;;;9.90;99.90;;;;;;4993979;28;20209;-80
2021/10/16 03:35:04;;;;;;;13.57;10.68;;;9.80;99.90;;;;;;5005613;28;20245;-80
2021/10/16 03:37:31;;;;;;;12.43;11.13;;;9.90;99.90;;;;;;5005016;28;20571;-80
2021/10/16 03:39:59;;;;;;;13.32;11.13;;;10.00;99.90;;;;;;4997388;28;20201;-80
2021/10/16 03:42:26;;;;;;;11.65;10.43;;;9.90;99.90;;;;;;4986806;28;20205;-79
2021/10/16 03:44:52;;;;;;;12.53;11.23;;;10.00;99.90;;;;;;4985274;28;20231;-80
2021/10/16 03:47:19;;;;;;;15.83;10.77;;;10.10;99.90;;;;;;4984564;28;20458;-80
2021/10/16 03:49:46;;;;;;;12.50;11.20;;;10.00;99.90;;;;;;4985231;28;20463;-80
2021/10/16 03:52:13;;;;;;;14.80;13.17;;;10.10;99.90;;;;;;4992737;28;20456;-80
2021/10/16 03:54:39;;;;;;;13.70;11.10;;;10.10;99.90;;;;;;5001101;28;20481;-80
2021/10/16 03:57:07;;;;;;;13.43;11.70;;;10.10;99.90;;;;;;4986034;28;20453;-79
2021/10/16 03:59:36;;;;;;;14.20;12.70;;;10.10;99.90;;;;;;4988659;28;20199;-80
2021/10/16 04:02:04;;;;;;;12.57;11.45;;;10.20;99.90;;;;;;4999711;28;20506;-79
2021/10/16 04:04:31;;;;;;;14.70;12.45;;;10.10;99.90;;;;;;5004426;28;20245;-78
2021/10/16 04:06:58;;;;;;;13.57;12.23;;;10.10;99.90;;;;;;5005339;28;20209;-80
2021/10/16 04:09:24;;;;;;;16.63;12.63;;;10.10;99.90;;;;;;4994462;28;20596;-79
2021/10/16 04:11:52;;;;;;;24.85;15.82;;;10.00;99.90;;;;;;4985718;28;20502;-80
2021/10/16 04:14:20;;;;;;;16.03;14.33;;;10.10;99.90;;;;;;4993996;28;20202;-80
2021/10/16 04:16:47;;;;;;;14.95;13.52;;;10.10;99.90;;;;;;5003401;28;20458;-80
2021/10/16 04:19:14;;;;;;;20.23;13.60;;;10.10;99.90;;;;;;5004492;28;20206;-80
2021/10/16 04:21:41;;;;;;;16.03;13.43;;;10.20;99.90;;;;;;5004909;28;20448;-80
2021/10/16 04:24:07;;;;;;;16.30;13.53;;;10.20;99.90;;;;;;4986243;28;20456;-79
2021/10/16 04:26:34;;;;;;;18.17;15.10;;;10.30;99.90;;;;;;4984405;28;20480;-79
2021/10/16 04:29:01;;;;;;;16.10;14.40;;;10.30;99.90;;;;;;4986776;28;20462;-79
2021/10/16 04:31:29;;;;;;;14.57;13.03;;;10.40;99.90;;;;;;4985261;28;20490;-80
2021/10/16 04:33:56;;;;;;;12.87;11.57;;;10.40;99.90;;;;;;4984920;28;20471;-79
2021/10/16 04:36:23;;;;;;;13.43;11.10;;;10.40;99.90;;;;;;4984463;28;20481;-80
2021/10/16 04:38:50;;;;;;;12.68;9.77;;;10.40;99.90;;;;;;4985862;28;20466;-79
2021/10/16 04:41:18;;;;;;;9.05;8.25;;;10.40;99.90;;;;;;4985697;28;20213;-80
2021/10/16 04:43:45;;;;;;;10.52;9.52;;;10.30;99.90;;;;;;5005406;28;20213;-79
2021/10/16 04:46:13;;;;;;;12.20;9.90;;;10.30;99.90;;;;;;5006422;28;20205;-78
2021/10/16 04:48:41;;;;;;;10.50;8.70;;;10.10;99.90;;;;;;5010607;28;20459;-80
2021/10/16 04:51:10;;;;;;;9.85;8.90;;;10.00;99.90;;;;;;5005880;28;20477;-80
2021/10/16 04:53:36;;;;;;;10.73;9.73;;;10.00;99.90;;;;;;4986353;28;20215;-80
2021/10/16 04:56:03;;;;;;;11.52;8.82;;;9.90;99.90;;;;;;4992686;28;20230;-80
2021/10/16 04:58:30;;;;;;;10.10;9.10;;;9.90;99.90;;;;;;5005202;28;20220;-80
2021/10/16 05:00:57;;;;;;;10.68;9.57;;;9.90;99.90;;;;;;4990419;28;20208;-80
2021/10/16 05:03:24;;;;;;;11.98;9.63;;;10.00;99.90;;;;;;4985760;28;20210;-80
2021/10/16 05:05:53;;;;;;;12.65;11.40;;;10.00;99.90;;;;;;5020588;23;20227;-82
2021/10/16 05:08:20;;;;;;;11.88;9.18;;;10.00;99.90;;;;;;4981672;28;20213;-82
2021/10/16 05:10:47;;;;;;;10.90;9.80;;;10.10;99.90;;;;;;4993034;28;20613;-83
2021/10/16 05:13:14;;;;;;;14.10;10.18;;;10.10;99.90;;;;;;5001271;28;20477;-83
2021/10/16 05:15:41;;;;;;;11.50;10.50;;;10.10;99.90;;;;;;4989463;28;20215;-82
2021/10/16 05:18:07;;;;;;;9.60;8.60;;;10.10;99.90;;;;;;4981128;28;20453;-82
2021/10/16 05:20:34;;;;;;;10.37;9.37;;;10.10;99.90;;;;;;4978543;28;20974;-82
2021/10/16 05:23:02;;;;;;;10.70;9.70;;;10.10;99.90;;;;;;4985610;28;20458;-82
2021/10/16 05:25:29;;;;;;;12.27;10.90;;;10.10;99.90;;;;;;4981073;28;20578;-82
2021/10/16 05:27:56;;;;;;;13.45;9.80;;;10.20;99.90;;;;;;4981523;28;20466;-82
2021/10/16 05:30:23;;;;;;;12.38;11.20;;;10.20;99.90;;;;;;4981654;28;20210;-82
2021/10/16 05:32:49;;;;;;;10.63;9.57;;;10.20;99.90;;;;;;4984610;28;20277;-83
2021/10/16 05:35:16;;;;;;;11.37;10.20;;;10.20;99.90;;;;;;4984707;28;20210;-83
2021/10/16 05:37:43;;;;;;;13.07;10.17;;;10.10;99.90;;;;;;4984410;28;20480;-83
2021/10/16 05:40:12;;;;;;;14.68;9.50;;;10.10;99.90;;;;;;4985429;28;20973;-83
2021/10/16 05:42:38;;;;;;;11.10;10.02;;;10.20;99.90;;;;;;4984806;28;20219;-82
2021/10/16 05:45:06;;;;;;;10.43;9.52;;;10.20;99.90;;;;;;4984551;28;20216;-83
2021/10/16 05:47:36;;;;;;;11.23;10.07;;;10.30;99.90;;;;;;4985395;28;20582;-82
2021/10/16 05:50:04;;;;;;;10.48;9.52;;;10.20;99.90;;;;;;4984944;28;20464;-82
2021/10/16 05:52:31;;;;;;;9.57;8.68;;;10.30;99.90;;;;;;4985174;28;20228;-83
2021/10/16 05:54:58;;;;;;;9.40;8.60;;;10.30;99.90;;;;;;4984671;28;20813;-82
2021/10/16 05:57:26;;;;;;;12.23;10.97;;;10.20;99.90;;;;;;4986221;28;20233;-83
2021/10/16 05:59:52;;;;;;;11.43;10.23;;;10.10;99.90;;;;;;4986443;28;20462;-83
2021/10/16 06:02:19;;;;;;;11.50;10.50;;;10.20;99.90;;;;;;4986337;28;20285;-82
2021/10/16 06:04:46;;;;;;;12.23;11.02;;;10.00;99.90;;;;;;4986100;28;20630;-82
2021/10/16 06:07:12;;;;;;;11.27;10.18;;;10.00;99.90;;;;;;4983040;28;20626;-83
2021/10/16 06:09:39;;;;;;;10.80;9.65;;;10.20;99.90;;;;;;4983738;28;20218;-82
2021/10/16 06:12:06;;;;;;;12.93;11.63;;;10.30;99.90;;;;;;4984112;28;20226;-83
2021/10/16 06:14:35;;;;;;;12.20;11.10;;;10.20;99.90;;;;;;4984956;28;20465;-83
2021/10/16 06:17:03;;;;;;;14.73;11.03;;;10.10;99.90;;;;;;4984908;28;20475;-83
2021/10/16 06:19:30;;;;;;;12.40;11.20;;;10.10;99.90;;;;;;4985749;28;20910;-83
2021/10/16 06:21:57;;;;;;;12.57;11.38;;;10.00;99.90;;;;;;4985148;28;20465;-83
2021/10/16 06:24:23;;;;;;;13.50;12.20;;;10.00;99.90;;;;;;4985567;28;20207;-83
2021/10/16 06:26:50;;;;;;;11.95;10.95;;;10.10;99.90;;;;;;4985693;28;20469;-83
2021/10/16 06:29:17;;;;;;;11.85;10.20;;;10.10;99.90;;;;;;4981260;28;20203;-83
2021/10/16 06:31:45;;;;;;;13.90;10.00;;;10.20;99.90;;;;;;4981835;28;20237;-83
2021/10/16 06:34:12;;;;;;;11.00;9.97;;;10.30;99.90;;;;;;4982181;28;20460;-83
2021/10/16 06:36:39;;;;;;;22.43;11.93;;;10.40;99.90;;;;;;4984581;28;20485;-83
2021/10/16 06:39:05;;;;;;;10.83;9.60;;;10.50;99.90;;;;;;4978240;28;20450;-83
2021/10/16 06:41:32;;;;;;;11.13;10.10;;;10.50;99.90;;;;;;4977642;28;20439;-83
2021/10/16 06:43:59;;;;;;;13.30;11.00;;;10.60;99.90;;;;;;4979940;28;20455;-83
2021/10/16 06:46:25;;;;;;;11.23;10.23;;;10.70;99.90;;;;;;4981302;28;20474;-83
2021/10/16 06:48:55;;;;;;;10.60;9.60;;;10.60;99.90;;;;;;4978093;28;20455;-83
2021/10/16 06:51:22;;;;;;;10.27;9.40;;;10.60;99.90;;;;;;4966604;28;20491;-82
2021/10/16 06:53:48;;;;;;;15.30;11.53;;;10.60;99.90;;;;;;4970616;28;20459;-83
2021/10/16 06:56:15;;;;;;;12.50;11.20;;;10.60;99.90;;;;;;4981481;28;20478;-83
2021/10/16 06:58:42;;;;;;;10.90;10.00;;;10.60;99.90;;;;;;4981068;28;20458;-82
2021/10/16 07:01:09;;;;;;;14.55;13.23;;;10.50;99.90;;;;;;4983176;28;20473;-82
2021/10/16 07:03:35;;;;;;;11.63;10.60;;;10.60;99.90;;;;;;4983058;28;20216;-83
2021/10/16 07:06:03;;;;;;;13.73;11.20;;;10.70;99.90;;;;;;4981530;28;20485;-83
2021/10/16 07:08:35;;;;;;;14.17;11.80;;;10.70;99.90;;;;;;4982661;28;20455;-83
2021/10/16 07:11:01;;;;;;;14.43;11.20;;;10.60;99.90;;;;;;4982494;28;20457;-83
2021/10/16 07:13:28;;;;;;;11.47;10.50;;;10.60;99.90;;;;;;4981383;28;20475;-83
2021/10/16 07:15:55;;;;;;;11.87;10.63;;;10.70;99.90;;;;;;4981785;28;20457;-83
2021/10/16 07:18:22;;;;;;;11.53;10.53;;;10.80;99.90;;;;;;4979707;28;20461;-82
2021/10/16 07:20:49;;;;;;;13.70;12.30;;;10.90;99.90;;;;;;4980610;28;20562;-82
2021/10/16 07:23:21;;;;;;;14.57;13.10;;;11.00;99.90;;;;;;4981932;28;20470;-83
2021/10/16 07:25:47;;;;;;;13.03;11.73;;;11.00;99.90;;;;;;4982645;28;20858;-82
2021/10/16 07:28:14;;;;;;;13.40;11.27;;;11.10;99.90;;;;;;4984430;28;20476;-83
2021/10/16 07:30:41;;;;;;;13.30;11.90;;;11.10;99.90;;;;;;4985911;28;20461;-83
2021/10/16 07:33:09;;;;;;;12.73;11.47;;;11.10;99.90;;;;;;4991884;28;20491;-83
2021/10/16 07:35:35;;;;;;;16.77;13.20;;;11.10;99.90;;;;;;4991347;28;20513;-82
2021/10/16 07:38:02;;;;;;;13.50;12.07;;;11.20;99.90;;;;;;4990549;28;20476;-83
2021/10/16 07:40:30;;;;;;;18.93;16.93;;;11.20;99.90;;;;;;4991342;28;20459;-82
2021/10/16 07:42:57;;;;;;;20.23;15.97;;;11.20;99.90;;;;;;4990563;28;20451;-82
2021/10/16 07:45:24;;;;;;;21.93;17.07;;;11.20;99.90;;;;;;4990486;28;20455;-82
2021/10/16 07:47:51;;;;;;;19.00;14.83;;;11.20;99.90;;;;;;4990023;28;20490;-82
2021/10/16 07:50:18;;;;;;;17.60;15.50;;;11.20;99.90;;;;;;4991475;28;20534;-82
2021/10/16 07:52:45;;;;;;;21.03;15.83;;;11.10;99.90;;;;;;4990071;28;20497;-82
2021/10/16 07:55:11;;;;;;;21.17;17.20;;;11.10;99.90;;;;;;4988855;28;20449;-83
2021/10/16 07:57:40;;;;;;;22.77;18.93;;;11.20;99.90;;;;;;4986609;28;20479;-83
2021/10/16 08:00:08;;;;;;;25.00;19.10;;;11.30;99.90;;;;;;4956361;28;20448;-83
2021/10/16 08:02:34;;;;;;;19.00;15.77;;;11.20;99.90;;;;;;4959287;28;20448;-83
2021/10/16 08:05:02;;;;;;;20.80;16.63;;;11.30;99.90;;;;;;4960524;28;20465;-82
2021/10/16 08:07:29;;;;;;;27.23;20.70;;;11.20;99.90;;;;;;4956285;28;20538;-83
2021/10/16 08:09:56;;;;;;;22.80;19.57;;;11.10;99.90;;;;;;4955918;28;20839;-83
2021/10/16 08:12:23;;;;;;;22.17;18.20;;;11.20;99.90;;;;;;4955160;28;21045;-83
2021/10/16 08:14:52;;;;;;;31.47;20.17;;;11.40;99.90;;;;;;4956304;28;20459;-83
2021/10/16 08:17:18;;;;;;;33.57;23.27;;;11.50;99.90;;;;;;4955244;28;20841;-83
2021/10/16 08:19:45;;;;;;;26.53;21.20;;;11.50;99.90;;;;;;4954018;28;20459;-83
2021/10/16 08:22:14;;;;;;;29.23;21.90;;;11.60;99.90;;;;;;4956717;28;20455;-83
2021/10/16 08:24:42;;;;;;;29.63;21.63;;;11.80;99.90;;;;;;4951845;29;20456;-83
2021/10/16 08:27:09;;;;;;;33.20;22.23;;;12.00;99.90;;;;;;4956277;28;20969;-83
2021/10/16 08:29:36;;;;;;;28.70;21.93;;;12.10;99.90;;;;;;4952438;28;20452;-83
2021/10/16 08:32:05;;;;;;;20.93;17.73;;;12.20;99.90;;;;;;4956356;28;20488;-83
2021/10/16 08:34:32;;;;;;;24.77;18.33;;;12.20;99.90;;;;;;4954236;28;20449;-83
2021/10/16 08:36:59;;;;;;;20.60;18.40;;;11.90;99.90;;;;;;4957930;28;20483;-83
2021/10/16 08:39:26;;;;;;;21.53;17.70;;;12.10;99.90;;;;;;4954146;28;20449;-83
2021/10/16 08:41:53;;;;;;;24.33;16.63;;;12.10;99.90;;;;;;4952909;28;20452;-84
2021/10/16 08:44:20;;;;;;;23.77;17.57;;;12.30;99.90;;;;;;4953148;28;20449;-84
2021/10/16 08:46:47;;;;;;;23.47;18.17;;;12.40;99.90;;;;;;4954869;28;20479;-83
2021/10/16 08:49:16;;;;;;;36.30;21.80;;;12.40;99.90;;;;;;4955023;28;20449;-84
2021/10/16 08:51:43;;;;;;;13.80;11.97;;;12.40;99.90;;;;;;4952786;28;20514;-83
2021/10/16 08:54:10;;;;;;;14.03;12.63;;;12.50;99.90;;;;;;4953287;28;20456;-81
2021/10/16 08:56:37;;;;;;;14.20;12.53;;;12.40;99.90;;;;;;4952807;28;20469;-83
2021/10/16 08:59:04;;;;;;;15.77;14.27;;;12.30;99.90;;;;;;4956448;28;20452;-83
2021/10/16 09:01:30;;;;;;;16.53;15.00;;;12.20;99.90;;;;;;4952524;28;20456;-82
2021/10/16 09:03:58;;;;;;;18.33;15.17;;;12.10;99.90;;;;;;4957468;28;20459;-83
2021/10/16 09:06:35;;;;;;;18.33;16.33;;;12.20;99.90;;;;;;4956142;28;20495;-82
2021/10/16 09:09:04;;;;;;;17.10;13.60;;;12.20;99.90;;;;;;4957159;28;20490;-83
2021/10/16 09:11:33;;;;;;;17.17;14.50;;;12.30;99.90;;;;;;4956531;28;20462;-83
2021/10/16 09:21:00;;;;;;;18.77;16.77;;;12.30;99.90;;;;;;4882853;29;21243;-87
2021/10/16 09:24:44;;;;;;;19.73;17.53;;;12.30;99.90;;;;;;4884120;29;20867;-85
2021/10/16 09:27:24;;;;;;;27.13;20.23;;;12.50;99.90;;;;;;4938844;29;20580;-85
2021/10/16 09:37:04;;;;;;;32.53;21.80;;;11.80;99.90;;;;;;4959080;28;20479;-86
2021/10/16 09:50:59;;;;;;;28.20;18.67;;;12.00;99.90;;;;;;4789322;29;20479;-84
2021/10/16 09:53:26;;;;;;;28.47;21.33;;;12.20;99.90;;;;;;4944683;28;20495;-84
2021/10/16 09:55:54;;;;;;;29.97;23.50;;;12.10;99.90;;;;;;4975503;28;20458;-84
2021/10/16 09:58:23;;;;;;;34.80;22.07;;;12.10;99.90;;;;;;4975541;28;20467;-84
2021/10/16 10:00:50;;;;;;;24.60;21.73;;;12.30;99.90;;;;;;4975766;28;20463;-85
2021/10/16 10:03:23;;;;;;;29.17;22.63;;;12.60;99.90;;;;;;4975496;28;20460;-88
2021/10/16 10:05:52;;;;;;;27.63;19.57;;;12.90;99.90;;;;;;4974964;28;20460;-85
2021/10/16 10:08:21;;;;;;;32.93;22.17;;;13.10;99.90;;;;;;4975798;28;20456;-85
2021/10/16 10:10:48;;;;;;;26.00;19.70;;;13.00;99.90;;;;;;4976541;28;20468;-83
2021/10/16 10:13:16;;;;;;;33.47;23.43;;;13.10;99.90;;;;;;4975423;28;20487;-83
2021/10/16 10:15:43;;;;;;;26.87;23.20;;;13.20;99.90;;;;;;4976159;28;20448;-84
2021/10/16 10:21:21;;;;;;;32.30;23.27;;;13.10;99.90;;;;;;4975498;28;20423;-86
2021/10/16 10:28:04;;;;;;;30.03;24.03;;;12.90;99.90;;;;;;4912218;28;20482;-85
2021/10/16 10:31:39;;;;;;;;;;;;;;;;;;;;;
2021/10/16 10:40:46;;;;;;;28.80;21.50;;;13.00;99.90;;;;;;4909403;28;20458;-87
2021/10/16 10:44:05;;;;;;;30.17;20.80;;;13.00;99.90;;;;;;4975313;28;20448;-86
2021/10/16 10:46:57;;;;;;;27.70;22.83;;;13.30;99.90;;;;;;4975273;28;20479;-86
2021/10/16 10:50:29;;;;;;;;;;;;;;;;;;;;;
2021/10/16 10:56:15;;;;;;;;;;;;;;;;;;;;;
2021/10/16 10:59:41;;;;;;;22.43;18.90;;;13.40;99.90;;;;;;4955444;29;20961;-86
2021/10/16 11:02:09;;;;;;;25.40;19.03;;;13.30;99.90;;;;;;4955250;28;20535;-86
2021/10/16 11:04:53;;;;;;;21.33;19.00;;;13.40;99.90;;;;;;4955393;28;20544;-87
2021/10/16 11:07:41;;;;;;;24.50;19.97;;;13.80;99.90;;;;;;5004193;23;20595;-82
2021/10/16 11:10:08;;;;;;;21.77;18.00;;;13.90;99.90;;;;;;4999622;28;20525;-82
2021/10/16 11:12:39;;;;;;;26.00;18.90;;;13.90;99.90;;;;;;4998455;28;20483;-83
2021/10/16 11:15:07;;;;;;;18.57;16.70;;;13.60;99.90;;;;;;4999945;28;20481;-82
2021/10/16 11:17:37;;;;;;;20.70;17.30;;;13.80;99.90;;;;;;4980655;28;20483;-83
2021/10/16 11:20:06;;;;;;;25.57;19.80;;;13.90;99.90;;;;;;4987257;28;20451;-85
2021/10/16 11:22:46;;;;;;;20.73;17.10;;;13.60;99.90;;;;;;5000437;28;20505;-83
2021/10/16 11:25:21;;;;;;;17.67;15.97;;;14.00;99.90;;;;;;4993198;28;20457;-83
2021/10/16 11:28:07;;;;;;;18.97;15.37;;;14.30;99.90;;;;;;4979990;28;20482;-82
2021/10/16 11:30:36;;;;;;;19.90;15.97;;;14.50;99.90;;;;;;4988632;28;20455;-82
2021/10/16 11:33:04;;;;;;;17.43;15.53;;;14.80;99.90;;;;;;4999471;28;20509;-83
2021/10/16 11:35:39;;;;;;;18.30;16.27;;;15.10;99.90;;;;;;4990995;28;20455;-83
2021/10/16 11:38:07;;;;;;;17.77;14.97;;;15.20;99.90;;;;;;4978466;28;20496;-85
2021/10/16 11:40:35;;;;;;;16.70;13.97;;;15.40;99.90;;;;;;4991346;28;20447;-83
2021/10/16 11:43:04;;;;;;;15.97;14.30;;;15.70;99.90;;;;;;5003484;28;20825;-84
2021/10/16 11:45:35;;;;;;;16.73;14.30;;;16.00;99.90;;;;;;4993061;28;20453;-81
2021/10/16 11:48:04;;;;;;;17.63;15.80;;;16.20;99.90;;;;;;5006741;28;20508;-81
2021/10/16 11:50:33;;;;;;;17.50;15.13;;;16.50;99.90;;;;;;5013016;28;20448;-82
2021/10/16 11:53:08;;;;;;;14.93;13.53;;;16.80;99.90;;;;;;5000768;28;20490;-82
2021/10/16 11:55:36;;;;;;;15.57;14.17;;;17.30;99.90;;;;;;4993294;28;20452;-82
2021/10/16 11:58:05;;;;;;;16.27;14.60;;;18.00;98.80;;;;;;5005211;28;20488;-82
2021/10/16 12:00:34;;;;;;;12.67;11.50;;;18.60;97.80;;;;;;4995679;28;20452;-82
2021/10/16 12:03:08;;;;;;;15.90;14.50;;;19.50;96.80;;;;;;5005026;28;20457;-82
2021/10/16 12:05:36;;;;;;;15.73;14.13;;;20.30;95.10;;;;;;5013614;28;20501;-80
2021/10/16 12:08:15;;;;;;;13.90;12.43;;;20.80;93.20;;;;;;5012352;28;20870;-81
2021/10/16 12:10:49;;;;;;;13.47;12.17;;;21.50;93.00;;;;;;5014723;28;20446;-82
2021/10/16 12:13:27;;;;;;;14.10;12.93;;;22.70;91.10;;;;;;5000962;28;20492;-82
2021/10/16 12:15:56;;;;;;;14.13;12.83;;;23.30;87.00;;;;;;4993394;28;20447;-82
2021/10/16 12:18:25;;;;;;;14.70;13.30;;;23.10;84.60;;;;;;5006054;28;20495;-82
2021/10/16 12:20:55;;;;;;;13.50;12.33;;;22.90;84.80;;;;;;5013130;28;20455;-83
2021/10/16 12:23:24;;;;;;;14.43;13.03;;;23.10;85.00;;;;;;5001124;28;20446;-83
2021/10/16 12:25:54;;;;;;;12.63;11.53;;;23.50;82.50;;;;;;4993918;28;20434;-83
2021/10/16 12:28:22;;;;;;;14.20;12.83;;;24.00;83.20;;;;;;5005976;28;20454;-82
2021/10/16 12:31:10;;;;;;;14.90;13.40;;;24.50;82.20;;;;;;5014665;28;20455;-80
2021/10/16 12:34:01;;;;;;;13.57;12.47;;;25.10;83.50;;;;;;4999787;28;20484;-80
2021/10/16 12:36:30;;;;;;;11.77;10.77;;;25.20;81.80;;;;;;4993708;28;20472;-80
2021/10/16 12:38:57;;;;;;;14.47;13.17;;;25.70;84.90;;;;;;5007820;28;20462;-81
2021/10/16 12:41:25;;;;;;;14.27;13.00;;;25.80;79.10;;;;;;4998006;28;20447;-80
2021/10/16 12:43:52;;;;;;;14.30;13.10;;;25.00;78.80;;;;;;5012390;28;20439;-82
2021/10/16 12:46:30;;;;;;;15.37;14.17;;;24.50;79.30;;;;;;5016598;28;20558;-80
2021/10/16 12:48:57;;;;;;;14.20;12.97;;;24.00;80.00;;;;;;5001813;28;20450;-80
2021/10/16 12:51:39;;;;;;;14.80;13.40;;;23.60;79.00;;;;;;4998121;28;20456;-80
2021/10/16 12:54:06;;;;;;;12.13;10.90;;;23.00;81.40;;;;;;4997818;28;20470;-80
2021/10/16 12:56:32;;;;;;;11.80;10.77;;;22.00;79.90;;;;;;5005272;28;20473;-80
2021/10/16 12:59:00;;;;;;;12.30;11.10;;;21.50;82.30;;;;;;5017413;28;20490;-80
2021/10/16 13:01:27;;;;;;;13.20;11.77;;;21.30;84.60;;;;;;5010053;28;20459;-80
2021/10/16 13:03:55;;;;;;;11.00;10.07;;;20.90;85.50;;;;;;5011071;28;20427;-80
2021/10/16 13:06:22;;;;;;;12.53;11.43;;;20.60;86.90;;;;;;5010895;28;20482;-80
2021/10/16 13:08:50;;;;;;;12.73;10.73;;;20.30;85.30;;;;;;4997440;28;20454;-80
2021/10/16 13:11:17;;;;;;;11.80;10.60;;;20.00;85.70;;;;;;5001712;28;20451;-79
2021/10/16 13:13:44;;;;;;;13.10;12.00;;;19.50;86.70;;;;;;5016837;28;20500;-79
2021/10/16 13:16:11;;;;;;;13.17;11.97;;;18.50;89.10;;;;;;4998311;28;20451;-79
2021/10/16 13:18:38;;;;;;;11.00;9.90;;;18.10;90.40;;;;;;4997297;28;20457;-80
2021/10/16 13:21:09;;;;;;;10.97;9.97;;;18.00;90.90;;;;;;5013922;28;20443;-80
2021/10/16 13:23:36;;;;;;;12.87;11.57;;;17.50;91.10;;;;;;5000850;28;20481;-79
2021/10/16 13:26:02;;;;;;;12.10;10.90;;;17.00;92.10;;;;;;5001483;28;20536;-80
2021/10/16 13:28:29;;;;;;;12.67;11.60;;;16.60;92.70;;;;;;4998910;28;20452;-80